Aviation Digital Data Service (ADDS)

Output produced by METARs form (0301 UTC 29 August 2015)
found at http://aviationweather.gov/adds/metars/
 
KCKB 290240Z 2903/2924 00000KT P6SM SCT250 
     FM290700 00000KT 5SM BR SCT250 
     FM290900 00000KT 2SM BR FEW050 
     FM291100 00000KT 4SM BR FEW040 
     FM291300 00000KT 6SM BR FEW040 
     FM291400 00000KT P6SM SCT035